Time;durP1;ratioP1;P1;durP2;ratioP2;P2;SDS_P1;SDS_P2;PMS_P1;PMS_P2;Temp;Humidity;BMP_temperature;BMP_pressure;BME280_temperature;BME280_humidity;BME280_pressure;Samples;Min_cycle;Max_cycle;Signal;HPM_P1;HPM_P2
2022/05/06 00:00:37;;;;;;;32.55;22.92;;;12.70;99.90;;;;;;5001952;28;20312;-75
2022/05/06 00:03:05;;;;;;;28.80;22.60;;;12.70;99.90;;;;;;4985741;28;20245;-75
2022/05/06 00:05:32;;;;;;;31.25;23.38;;;12.70;99.90;;;;;;4981493;28;20277;-74
2022/05/06 00:08:00;;;;;;;28.67;21.63;;;12.70;99.90;;;;;;4981237;28;20201;-75
2022/05/06 00:10:27;;;;;;;31.17;22.27;;;12.70;99.90;;;;;;4977623;28;20235;-74
2022/05/06 00:12:53;;;;;;;25.52;21.77;;;12.70;99.90;;;;;;4991477;28;20216;-74
2022/05/06 00:15:20;;;;;;;35.40;23.85;;;12.70;99.90;;;;;;4997445;28;20240;-74
2022/05/06 00:17:47;;;;;;;29.05;22.10;;;12.70;99.90;;;;;;4995406;28;20287;-74
2022/05/06 00:20:15;;;;;;;38.30;22.38;;;12.70;99.90;;;;;;4998789;28;20248;-74
2022/05/06 00:22:43;;;;;;;26.60;22.13;;;12.70;99.90;;;;;;4984153;28;20292;-74
2022/05/06 00:25:10;;;;;;;29.77;22.40;;;12.70;99.90;;;;;;4988578;28;20307;-74
2022/05/06 00:27:40;;;;;;;33.03;24.45;;;12.70;99.90;;;;;;5002935;28;20556;-74
2022/05/06 00:30:08;;;;;;;30.13;22.20;;;12.70;99.90;;;;;;4988390;28;20200;-75
2022/05/06 00:32:35;;;;;;;33.92;23.27;;;12.70;99.90;;;;;;4974801;28;20292;-75
2022/05/06 00:35:02;;;;;;;31.75;25.15;;;12.70;99.90;;;;;;4980399;28;20291;-75
2022/05/06 00:37:31;;;;;;;36.30;24.85;;;12.70;99.90;;;;;;4994013;28;20211;-75
2022/05/06 00:39:58;;;;;;;31.60;24.15;;;12.60;99.90;;;;;;4988566;28;20228;-75
2022/05/06 00:42:24;;;;;;;33.03;24.67;;;12.60;99.90;;;;;;4974212;28;20320;-75
2022/05/06 00:44:51;;;;;;;33.55;25.55;;;12.70;99.90;;;;;;4977716;28;20207;-75
2022/05/06 00:47:22;;;;;;;30.70;24.15;;;12.70;99.90;;;;;;4993823;28;20291;-75
2022/05/06 00:49:50;;;;;;;33.63;24.67;;;12.70;99.90;;;;;;4991249;28;20666;-75
2022/05/06 00:52:17;;;;;;;30.35;24.30;;;12.70;99.90;;;;;;4975181;28;20243;-75
2022/05/06 00:54:46;;;;;;;34.72;24.08;;;12.70;99.90;;;;;;4975077;28;20240;-75
2022/05/06 00:57:13;;;;;;;32.20;24.50;;;12.60;99.90;;;;;;4975717;28;20285;-75
2022/05/06 01:02:22;;;;;;;32.60;25.05;;;12.60;99.90;;;;;;4982591;28;20602;-74
2022/05/06 01:04:50;;;;;;;34.45;24.90;;;12.60;99.90;;;;;;4980379;28;20215;-74
2022/05/06 01:07:18;;;;;;;36.72;26.35;;;12.60;99.90;;;;;;4982867;28;20202;-75
2022/05/06 01:09:46;;;;;;;34.15;24.83;;;12.60;99.90;;;;;;4982014;28;20565;-75
2022/05/06 01:12:13;;;;;;;33.45;25.05;;;12.50;99.90;;;;;;4984021;28;20323;-75
2022/05/06 01:14:40;;;;;;;35.20;24.60;;;12.60;99.90;;;;;;4982567;28;20219;-75
2022/05/06 01:17:08;;;;;;;33.63;24.77;;;12.60;99.90;;;;;;4984678;28;20284;-75
2022/05/06 01:19:35;;;;;;;33.35;24.92;;;12.60;99.90;;;;;;4973396;28;20213;-75
2022/05/06 01:22:03;;;;;;;34.10;25.58;;;12.50;99.90;;;;;;4972882;28;20267;-74
2022/05/06 01:24:31;;;;;;;35.42;24.40;;;12.50;99.90;;;;;;4972269;28;20216;-74
2022/05/06 01:27:03;;;;;;;34.10;23.95;;;12.50;99.90;;;;;;4973319;28;20236;-74
2022/05/06 01:29:32;;;;;;;39.92;26.48;;;12.50;99.90;;;;;;4973083;28;20296;-74
2022/05/06 01:31:59;;;;;;;34.90;25.27;;;12.50;99.90;;;;;;4973666;28;20233;-75
2022/05/06 01:34:28;;;;;;;31.83;25.55;;;12.50;99.90;;;;;;4972830;28;20221;-75
2022/05/06 01:36:57;;;;;;;34.30;24.85;;;12.50;99.90;;;;;;4973493;28;20303;-75
2022/05/06 01:39:30;;;;;;;32.58;24.63;;;12.50;99.90;;;;;;4976718;28;20710;-75
2022/05/06 01:42:00;;;;;;;36.53;26.10;;;12.50;99.90;;;;;;4977962;28;20229;-75
2022/05/06 01:44:29;;;;;;;29.95;23.70;;;12.50;99.90;;;;;;4976783;28;20295;-75
2022/05/06 01:46:59;;;;;;;33.90;25.20;;;12.50;99.90;;;;;;4977247;28;20220;-75
2022/05/06 01:49:27;;;;;;;33.17;24.83;;;12.40;99.90;;;;;;4982545;28;20205;-75
2022/05/06 01:51:57;;;;;;;37.10;25.15;;;12.40;99.90;;;;;;4994817;28;20696;-75
2022/05/06 01:54:25;;;;;;;31.38;25.00;;;12.40;99.90;;;;;;4993375;28;20205;-75
2022/05/06 01:56:52;;;;;;;35.05;25.27;;;12.50;99.90;;;;;;4993300;28;20205;-74
2022/05/06 01:59:19;;;;;;;34.05;25.13;;;12.50;99.90;;;;;;4990477;28;20233;-75
2022/05/06 02:01:46;;;;;;;31.55;23.00;;;12.50;99.90;;;;;;4982790;28;20340;-75
2022/05/06 02:06:57;;;;;;;31.05;22.60;;;12.50;99.90;;;;;;4976782;28;20220;-75
2022/05/06 02:09:25;;;;;;;28.52;24.17;;;12.40;99.90;;;;;;4975982;28;20198;-74
2022/05/06 02:11:53;;;;;;;31.20;24.20;;;12.50;99.90;;;;;;4976772;28;20596;-74
2022/05/06 02:14:20;;;;;;;29.60;22.75;;;12.50;99.90;;;;;;4976646;28;20395;-75
2022/05/06 02:16:47;;;;;;;30.30;24.08;;;12.50;99.90;;;;;;4976838;28;20208;-75
2022/05/06 02:19:13;;;;;;;34.13;23.23;;;12.50;99.90;;;;;;4976395;28;20292;-74
2022/05/06 02:21:40;;;;;;;30.02;22.50;;;12.50;99.90;;;;;;4976666;28;20236;-74
2022/05/06 02:24:07;;;;;;;31.35;22.33;;;12.50;99.90;;;;;;4976326;28;20606;-75
2022/05/06 02:26:36;;;;;;;30.80;23.65;;;12.50;99.90;;;;;;4976733;28;20217;-74
2022/05/06 02:29:03;;;;;;;25.13;21.00;;;12.50;99.90;;;;;;4976660;28;20300;-74
2022/05/06 02:34:16;;;;;;;29.85;22.65;;;12.50;99.90;;;;;;4977431;28;20212;-75
2022/05/06 02:36:44;;;;;;;29.10;23.27;;;12.50;99.90;;;;;;4976395;28;20212;-75
2022/05/06 02:39:10;;;;;;;26.83;21.60;;;12.50;99.90;;;;;;4976709;28;20209;-75
2022/05/06 02:41:39;;;;;;;29.52;21.17;;;12.60;99.90;;;;;;4976857;28;20229;-74
2022/05/06 02:44:06;;;;;;;28.83;19.80;;;12.50;99.90;;;;;;4976979;28;20344;-75
2022/05/06 02:46:33;;;;;;;26.83;21.80;;;12.50;99.90;;;;;;4976255;28;20213;-74
2022/05/06 02:49:00;;;;;;;29.05;22.10;;;12.50;99.90;;;;;;4976105;28;20209;-74
2022/05/06 02:51:28;;;;;;;31.52;22.30;;;12.50;99.90;;;;;;4982313;28;20229;-75
2022/05/06 02:53:55;;;;;;;30.77;22.67;;;12.50;99.90;;;;;;4989966;28;20201;-74
2022/05/06 02:56:22;;;;;;;29.67;21.98;;;12.50;99.90;;;;;;5005274;28;20240;-75
2022/05/06 02:58:51;;;;;;;25.83;21.20;;;12.50;99.90;;;;;;5005785;28;20232;-75
2022/05/06 03:01:17;;;;;;;28.92;21.60;;;12.50;99.90;;;;;;4995493;28;20232;-75
2022/05/06 03:03:44;;;;;;;27.00;21.85;;;12.50;99.90;;;;;;4996040;28;20212;-75
2022/05/06 03:06:11;;;;;;;26.08;22.08;;;12.50;99.90;;;;;;4983219;28;20579;-75
2022/05/06 03:08:38;;;;;;;27.95;21.63;;;12.60;99.90;;;;;;4976635;28;20205;-75
2022/05/06 03:11:05;;;;;;;25.77;21.08;;;12.60;99.90;;;;;;4988089;28;20308;-75
2022/05/06 03:13:32;;;;;;;32.70;23.73;;;12.60;99.90;;;;;;4996355;28;20289;-75
2022/05/06 03:16:00;;;;;;;28.83;22.33;;;12.60;99.90;;;;;;4986055;28;20292;-75
2022/05/06 03:18:27;;;;;;;27.40;21.73;;;12.60;99.90;;;;;;4976543;28;20304;-74
2022/05/06 03:20:54;;;;;;;28.85;21.33;;;12.70;99.90;;;;;;4993977;28;20249;-75
2022/05/06 03:23:22;;;;;;;30.02;20.95;;;12.70;99.90;;;;;;5008371;28;20247;-74
2022/05/06 03:25:49;;;;;;;29.38;21.98;;;12.70;99.90;;;;;;4986919;28;20239;-75
2022/05/06 03:28:15;;;;;;;31.65;20.83;;;12.60;99.90;;;;;;4975078;28;20519;-75
2022/05/06 03:30:45;;;;;;;30.08;23.63;;;12.60;99.90;;;;;;4975265;28;20229;-74
2022/05/06 03:33:16;;;;;;;26.80;22.00;;;12.60;99.90;;;;;;4975534;28;20394;-75
2022/05/06 03:35:43;;;;;;;26.70;20.83;;;12.60;99.90;;;;;;4975767;28;20220;-75
2022/05/06 03:38:10;;;;;;;28.35;21.52;;;12.60;99.90;;;;;;4976754;28;20930;-75
2022/05/06 03:40:37;;;;;;;29.13;21.30;;;12.60;99.90;;;;;;4985913;28;20225;-75
2022/05/06 03:43:04;;;;;;;29.38;21.65;;;12.70;99.90;;;;;;4975357;28;20356;-74
2022/05/06 03:45:31;;;;;;;27.40;22.88;;;12.60;99.90;;;;;;4975505;28;20585;-74
2022/05/06 03:47:59;;;;;;;29.77;22.15;;;12.70;99.90;;;;;;4975649;28;20299;-74
2022/05/06 03:53:13;;;;;;;28.00;22.63;;;12.70;99.90;;;;;;4976697;28;20325;-75
2022/05/06 03:55:40;;;;;;;29.10;22.10;;;12.70;99.90;;;;;;4994225;28;20511;-75
2022/05/06 03:58:07;;;;;;;26.48;20.98;;;12.60;99.90;;;;;;4993177;28;20216;-75
2022/05/06 04:00:34;;;;;;;31.58;22.83;;;12.60;99.90;;;;;;4993511;28;20251;-75
2022/05/06 04:03:01;;;;;;;26.85;21.60;;;12.50;99.90;;;;;;4995778;28;20218;-75
2022/05/06 04:05:29;;;;;;;30.45;22.85;;;12.50;99.90;;;;;;4994001;28;20210;-74
2022/05/06 04:07:57;;;;;;;26.67;22.42;;;12.50;99.90;;;;;;4983103;28;20209;-75
2022/05/06 04:10:23;;;;;;;25.60;22.10;;;12.50;99.90;;;;;;4974482;28;20236;-75
2022/05/06 04:12:51;;;;;;;28.40;22.80;;;12.50;99.90;;;;;;4986277;28;20629;-75
2022/05/06 04:15:19;;;;;;;29.70;22.58;;;12.40;99.90;;;;;;4991723;28;20197;-75
2022/05/06 04:17:46;;;;;;;28.20;23.13;;;12.40;99.90;;;;;;4976005;28;20617;-74
2022/05/06 04:25:43;;;;;;;26.55;21.77;;;12.40;99.90;;;;;;4976714;28;20216;-74
2022/05/06 04:28:10;;;;;;;31.70;22.55;;;12.50;99.90;;;;;;4977589;28;20209;-74
2022/05/06 04:30:37;;;;;;;28.73;22.30;;;12.50;99.90;;;;;;4976864;28;20248;-74
2022/05/06 04:33:04;;;;;;;27.98;23.15;;;12.50;99.90;;;;;;4975115;28;20205;-75
2022/05/06 04:35:31;;;;;;;28.38;22.63;;;12.50;99.90;;;;;;4981486;28;20207;-75
2022/05/06 04:37:59;;;;;;;31.45;22.95;;;12.60;99.90;;;;;;4994945;28;20643;-75
2022/05/06 04:40:26;;;;;;;29.60;23.63;;;12.60;99.90;;;;;;4988755;28;20294;-75
2022/05/06 04:42:53;;;;;;;30.45;23.55;;;12.60;99.90;;;;;;4977268;28;20678;-75
2022/05/06 04:45:20;;;;;;;33.75;24.90;;;12.50;99.90;;;;;;4994439;28;20291;-75
2022/05/06 04:47:47;;;;;;;34.40;23.27;;;12.50;99.90;;;;;;4994006;28;20578;-75
2022/05/06 04:50:14;;;;;;;31.30;23.10;;;12.50;99.90;;;;;;4993535;28;20239;-75
2022/05/06 04:52:41;;;;;;;36.10;24.23;;;12.50;99.90;;;;;;4994123;28;20657;-75
2022/05/06 04:55:10;;;;;;;29.75;22.33;;;12.50;99.90;;;;;;4974669;28;20635;-75
2022/05/06 04:57:37;;;;;;;32.63;23.40;;;12.50;99.90;;;;;;4975050;28;20234;-75
2022/05/06 05:00:05;;;;;;;32.83;23.63;;;12.60;99.90;;;;;;4975499;28;20205;-75
2022/05/06 05:02:33;;;;;;;25.35;21.77;;;12.60;99.90;;;;;;4974922;28;20620;-76
2022/05/06 05:05:00;;;;;;;25.38;21.23;;;12.60;99.90;;;;;;4975095;28;20775;-75
2022/05/06 05:07:27;;;;;;;26.80;21.10;;;12.60;99.90;;;;;;4974534;28;20209;-75
2022/05/06 05:09:54;;;;;;;30.13;20.77;;;12.60;99.90;;;;;;4974509;28;20236;-74
2022/05/06 05:12:24;;;;;;;25.42;21.13;;;12.70;99.90;;;;;;4975881;28;20248;-75
2022/05/06 05:14:51;;;;;;;25.65;21.45;;;12.60;99.90;;;;;;4979059;28;20219;-75
2022/05/06 05:17:18;;;;;;;23.52;19.20;;;12.60;99.90;;;;;;4978533;28;20566;-75
2022/05/06 05:19:45;;;;;;;25.70;20.58;;;12.60;99.90;;;;;;4981506;28;20599;-75
2022/05/06 05:22:12;;;;;;;24.98;20.50;;;12.60;98.80;;;;;;4978905;28;20319;-75
2022/05/06 05:24:39;;;;;;;25.35;19.90;;;12.60;99.40;;;;;;4979205;28;20260;-75
2022/05/06 05:27:07;;;;;;;24.42;19.42;;;12.70;99.20;;;;;;4978925;28;20209;-75
2022/05/06 05:29:35;;;;;;;28.38;21.42;;;12.70;98.00;;;;;;4982936;28;20672;-75
2022/05/06 05:32:03;;;;;;;27.33;21.30;;;12.70;97.90;;;;;;4998260;28;20328;-75
2022/05/06 05:34:29;;;;;;;24.92;20.40;;;12.60;98.20;;;;;;4997099;28;20235;-76
2022/05/06 05:36:56;;;;;;;28.48;20.90;;;12.60;98.80;;;;;;4996697;28;20196;-76
2022/05/06 05:39:23;;;;;;;24.10;19.52;;;12.70;98.40;;;;;;4997328;28;20223;-76
2022/05/06 05:41:50;;;;;;;25.20;19.75;;;12.60;98.60;;;;;;4996846;28;20228;-75
2022/05/06 05:49:47;;;;;;;25.33;19.00;;;12.90;96.50;;;;;;4997288;28;20629;-74
2022/05/06 05:52:14;;;;;;;22.90;18.27;;;12.80;96.30;;;;;;4993684;28;20220;-74
2022/05/06 05:54:41;;;;;;;25.13;20.27;;;12.90;97.00;;;;;;4979276;28;20248;-75
2022/05/06 05:57:08;;;;;;;23.65;20.52;;;12.80;97.00;;;;;;4997352;28;20236;-74
2022/05/06 05:59:35;;;;;;;23.85;18.98;;;12.80;97.70;;;;;;4997599;28;20208;-75
2022/05/06 06:02:03;;;;;;;22.63;20.15;;;12.90;98.40;;;;;;4999659;28;20232;-75
2022/05/06 06:04:31;;;;;;;22.88;19.88;;;13.10;98.00;;;;;;4992886;28;20209;-74
2022/05/06 06:06:58;;;;;;;22.90;18.92;;;13.20;96.80;;;;;;4984378;28;20272;-75
2022/05/06 06:09:24;;;;;;;23.17;19.60;;;13.30;95.50;;;;;;4987168;28;20208;-75
2022/05/06 06:11:51;;;;;;;22.77;18.92;;;13.30;94.80;;;;;;5001329;28;20319;-75
2022/05/06 06:14:18;;;;;;;23.73;20.90;;;13.40;94.50;;;;;;5004465;28;20208;-73
2022/05/06 06:16:47;;;;;;;23.48;19.65;;;13.40;94.50;;;;;;5007679;28;20215;-75
2022/05/06 06:19:16;;;;;;;19.67;17.55;;;13.50;94.10;;;;;;5007696;28;20214;-74
2022/05/06 06:21:43;;;;;;;22.02;18.65;;;13.60;92.80;;;;;;5014736;28;20216;-74
2022/05/06 06:24:10;;;;;;;24.45;20.15;;;13.50;93.30;;;;;;5005303;28;20682;-74
2022/05/06 06:26:37;;;;;;;22.88;18.15;;;13.70;92.80;;;;;;4998568;28;20204;-75
2022/05/06 06:29:04;;;;;;;31.13;18.70;;;13.70;91.60;;;;;;5008533;28;20263;-76
2022/05/06 06:31:32;;;;;;;22.67;17.83;;;13.70;91.10;;;;;;4985832;28;20218;-76
2022/05/06 06:33:59;;;;;;;20.60;17.48;;;13.60;90.50;;;;;;4986002;28;20215;-76
2022/05/06 06:36:27;;;;;;;21.70;17.50;;;13.50;90.60;;;;;;4994798;28;20205;-77
2022/05/06 06:38:55;;;;;;;19.85;16.27;;;13.60;90.80;;;;;;4991804;28;20544;-76
2022/05/06 06:41:22;;;;;;;22.38;17.95;;;13.60;90.30;;;;;;4993299;28;20247;-77
2022/05/06 06:43:49;;;;;;;20.58;15.55;;;13.50;90.00;;;;;;5004296;28;20213;-75
2022/05/06 06:46:16;;;;;;;16.85;14.90;;;13.50;88.30;;;;;;5010971;28;20661;-75
2022/05/06 06:48:44;;;;;;;15.82;13.48;;;13.50;86.00;;;;;;5000365;28;20571;-76
2022/05/06 06:51:11;;;;;;;16.77;13.95;;;13.50;84.90;;;;;;5003393;28;20220;-75
2022/05/06 06:53:39;;;;;;;17.52;11.20;;;13.40;82.70;;;;;;5002315;28;20292;-74
2022/05/06 06:56:06;;;;;;;16.08;11.10;;;13.30;77.70;;;;;;5003424;28;20213;-77
2022/05/06 06:58:33;;;;;;;12.30;10.85;;;13.20;76.30;;;;;;5001827;28;20217;-77
2022/05/06 07:01:00;;;;;;;13.10;10.77;;;13.20;75.40;;;;;;5007366;28;20232;-77
2022/05/06 07:03:27;;;;;;;12.25;9.23;;;13.20;74.70;;;;;;5009922;28;20228;-77
2022/05/06 07:14:08;;;;;;;12.02;9.00;;;13.30;70.60;;;;;;4996545;28;20211;-77
2022/05/06 07:16:35;;;;;;;12.35;9.13;;;13.40;69.50;;;;;;4992986;28;20212;-77
2022/05/06 07:19:02;;;;;;;10.10;9.02;;;13.40;69.70;;;;;;5008050;28;20304;-76
2022/05/06 07:21:29;;;;;;;15.20;9.38;;;13.50;69.10;;;;;;5013611;28;20255;-76
2022/05/06 07:23:57;;;;;;;9.20;8.30;;;13.50;69.40;;;;;;5006678;28;20204;-76
2022/05/06 07:26:24;;;;;;;10.00;8.43;;;13.70;69.00;;;;;;4994246;28;20303;-77
2022/05/06 07:28:51;;;;;;;12.30;8.18;;;13.80;66.00;;;;;;5000365;28;20208;-77
2022/05/06 07:31:18;;;;;;;12.13;8.80;;;13.90;65.20;;;;;;4993845;28;20224;-76
2022/05/06 07:33:45;;;;;;;11.20;8.27;;;14.00;65.00;;;;;;4995797;28;20284;-77
2022/05/06 07:36:12;;;;;;;11.13;8.17;;;14.10;64.30;;;;;;4985250;28;20595;-77
2022/05/06 07:38:39;;;;;;;9.33;8.13;;;13.90;66.00;;;;;;4995092;28;20486;-76
2022/05/06 07:41:07;;;;;;;11.43;8.13;;;13.80;67.00;;;;;;4994206;28;20558;-77
2022/05/06 07:43:35;;;;;;;8.43;7.40;;;14.10;64.60;;;;;;4993543;28;20229;-76
2022/05/06 07:46:02;;;;;;;11.37;7.70;;;14.20;63.80;;;;;;4994948;28;20460;-76
2022/05/06 07:48:29;;;;;;;12.10;8.90;;;14.10;62.90;;;;;;5008962;28;20445;-75
2022/05/06 07:50:57;;;;;;;9.40;7.43;;;14.20;63.30;;;;;;4985293;28;20247;-76
2022/05/06 07:53:24;;;;;;;11.83;7.73;;;14.30;62.60;;;;;;4990907;28;20517;-76
2022/05/06 07:55:51;;;;;;;13.70;8.47;;;14.40;62.70;;;;;;4993316;28;20464;-76
2022/05/06 07:58:19;;;;;;;11.77;8.30;;;14.70;62.10;;;;;;4995473;28;20538;-76
2022/05/06 08:00:46;;;;;;;9.67;7.90;;;14.90;62.40;;;;;;4986431;28;20549;-77
2022/05/06 08:05:57;;;;;;;14.87;7.90;;;14.80;59.70;;;;;;4976032;28;20501;-77
2022/05/06 08:08:26;;;;;;;12.47;7.50;;;14.80;60.40;;;;;;4975938;28;20460;-77
2022/05/06 08:10:53;;;;;;;12.33;8.10;;;14.80;60.00;;;;;;4984006;28;20586;-75
2022/05/06 08:13:22;;;;;;;8.43;7.63;;;14.90;61.20;;;;;;4998260;28;20502;-75
2022/05/06 08:15:52;;;;;;;13.47;8.73;;;15.20;60.00;;;;;;4992457;28;20442;-77
2022/05/06 08:18:20;;;;;;;10.80;8.03;;;15.30;57.30;;;;;;5002284;28;20487;-74
2022/05/06 08:20:47;;;;;;;10.43;7.57;;;15.30;55.70;;;;;;4996122;28;20572;-75
2022/05/06 08:23:14;;;;;;;9.00;7.37;;;15.20;57.60;;;;;;4996965;28;20487;-75
2022/05/06 08:25:42;;;;;;;9.80;7.10;;;15.50;56.90;;;;;;4982840;28;20763;-74
2022/05/06 08:28:09;;;;;;;10.80;7.47;;;15.70;56.70;;;;;;4976443;28;20507;-74
2022/05/06 08:30:38;;;;;;;12.13;7.93;;;15.40;56.80;;;;;;4981243;28;20443;-75
2022/05/06 08:33:05;;;;;;;8.60;7.80;;;15.10;57.70;;;;;;4998559;28;20468;-77
2022/05/06 08:35:32;;;;;;;9.17;7.60;;;15.60;57.50;;;;;;5008870;28;20462;-74
2022/05/06 08:37:59;;;;;;;9.50;7.17;;;15.40;57.80;;;;;;5015481;28;20439;-74
2022/05/06 08:40:28;;;;;;;9.40;7.20;;;15.70;56.00;;;;;;4998539;28;20891;-75
2022/05/06 08:42:56;;;;;;;8.33;7.30;;;15.70;54.60;;;;;;4989376;28;20457;-76
2022/05/06 08:50:57;;;;;;;11.90;7.03;;;15.80;53.00;;;;;;4997172;28;20429;-75
2022/05/06 08:53:26;;;;;;;10.43;7.40;;;15.70;54.50;;;;;;4998087;28;20460;-75
2022/05/06 08:55:55;;;;;;;10.93;7.10;;;15.90;52.80;;;;;;5016777;28;20451;-78
2022/05/06 08:58:22;;;;;;;8.50;7.10;;;16.00;51.40;;;;;;5015420;28;20479;-76
2022/05/06 09:01:11;;;;;;;9.67;7.40;;;15.60;51.50;;;;;;4997507;28;20459;-77
2022/05/06 09:03:40;;;;;;;7.47;6.57;;;15.50;53.00;;;;;;4995106;28;20467;-76
2022/05/06 09:06:17;;;;;;;7.90;6.87;;;16.10;50.90;;;;;;4997502;28;20467;-75
2022/05/06 09:08:45;;;;;;;8.10;6.70;;;16.30;50.90;;;;;;4997975;28;20505;-75
2022/05/06 09:11:13;;;;;;;9.67;6.73;;;16.90;48.80;;;;;;5001093;28;20446;-74
2022/05/06 09:13:51;;;;;;;9.83;7.27;;;17.30;48.10;;;;;;4995228;28;20427;-76
2022/05/06 09:19:20;;;;;;;9.10;6.97;;;17.20;46.20;;;;;;4978213;28;20418;-73
2022/05/06 09:22:14;;;;;;;7.97;6.97;;;17.10;46.80;;;;;;4977984;28;20543;-78
2022/05/06 09:24:42;;;;;;;11.60;7.33;;;16.50;47.50;;;;;;4979828;28;20464;-74
2022/05/06 09:27:10;;;;;;;7.63;6.67;;;16.80;47.70;;;;;;4974285;28;20432;-75
2022/05/06 09:29:41;;;;;;;9.03;6.50;;;16.80;47.60;;;;;;4975010;28;20456;-76
2022/05/06 09:32:25;;;;;;;7.77;6.97;;;17.20;46.20;;;;;;4988683;28;20490;-75
2022/05/06 09:34:54;;;;;;;7.47;6.70;;;16.50;48.20;;;;;;4994039;28;20538;-74
2022/05/06 09:37:35;;;;;;;7.53;6.50;;;16.70;48.30;;;;;;4989987;28;20431;-75
2022/05/06 09:40:05;;;;;;;8.00;6.57;;;16.70;47.60;;;;;;4999405;28;20521;-77
2022/05/06 09:42:33;;;;;;;9.17;6.00;;;17.10;47.20;;;;;;5000087;28;20518;-75
2022/05/06 09:45:00;;;;;;;11.10;6.50;;;17.10;46.10;;;;;;4995527;28;20426;-75
2022/05/06 09:47:27;;;;;;;7.07;5.83;;;17.50;45.40;;;;;;4997298;28;20451;-75
2022/05/06 09:49:55;;;;;;;7.50;6.13;;;17.90;44.60;;;;;;4995337;28;20483;-74
2022/05/06 09:52:22;;;;;;;7.07;5.73;;;17.80;45.10;;;;;;4993389;28;20514;-74
2022/05/06 09:54:49;;;;;;;6.97;5.53;;;17.60;45.20;;;;;;4992404;28;20913;-74
2022/05/06 09:57:18;;;;;;;6.17;5.50;;;17.70;44.40;;;;;;5000488;28;20431;-75
2022/05/06 09:59:45;;;;;;;5.87;5.37;;;18.20;43.10;;;;;;4984093;28;20431;-75
2022/05/06 10:02:13;;;;;;;7.10;5.60;;;18.40;41.90;;;;;;4989228;28;21020;-75
2022/05/06 10:04:43;;;;;;;6.00;4.87;;;18.60;40.40;;;;;;4987574;28;20465;-74
2022/05/06 10:07:14;;;;;;;5.50;4.90;;;18.40;40.70;;;;;;4994707;28;20433;-74
2022/05/06 10:09:46;;;;;;;6.23;4.60;;;18.40;40.40;;;;;;4994874;28;20538;-74
2022/05/06 10:12:16;;;;;;;7.13;4.10;;;18.70;38.80;;;;;;4995609;28;20471;-74
2022/05/06 10:14:44;;;;;;;5.73;4.40;;;18.20;40.00;;;;;;4995210;28;20430;-75
2022/05/06 10:17:11;;;;;;;5.60;4.10;;;18.10;40.30;;;;;;4981678;28;20781;-75
2022/05/06 10:19:48;;;;;;;7.23;4.43;;;18.10;40.80;;;;;;4979547;28;20431;-75
2022/05/06 10:22:16;;;;;;;3.50;3.20;;;18.60;39.60;;;;;;4980646;28;20530;-73
2022/05/06 10:24:49;;;;;;;6.30;3.50;;;19.00;37.90;;;;;;4980411;28;20533;-74
2022/05/06 10:32:25;;;;;;;4.23;3.43;;;19.20;35.30;;;;;;4992811;28;20493;-75
2022/05/06 10:33:17;;;;;;;7.83;3.67;;;19.10;35.00;;;;;;4996069;28;20518;-75
2022/05/06 10:35:46;;;;;;;12.93;3.97;;;19.60;34.30;;;;;;4996134;28;20515;-75
2022/05/06 10:38:25;;;;;;;5.73;2.47;;;19.30;33.90;;;;;;4976939;28;20475;-75
2022/05/06 10:40:57;;;;;;;4.33;2.40;;;19.50;31.70;;;;;;4979327;28;20450;-76
2022/05/06 10:43:57;;;;;;;3.53;2.53;;;19.50;29.10;;;;;;4992270;28;20505;-74
2022/05/06 10:46:40;;;;;;;6.40;2.43;;;19.50;28.50;;;;;;4978038;28;20527;-75
2022/05/06 10:49:46;;;;;;;3.00;2.27;;;19.00;29.30;;;;;;4990525;28;20493;-74
2022/05/06 10:52:41;;;;;;;2.33;1.67;;;19.10;28.50;;;;;;4984736;28;20482;-76
2022/05/06 10:55:14;;;;;;;2.87;2.00;;;19.10;28.20;;;;;;4998087;28;20550;-75
2022/05/06 10:57:54;;;;;;;1.40;1.27;;;19.30;26.80;;;;;;4988073;28;20535;-76
2022/05/06 11:00:22;;;;;;;3.70;1.57;;;19.80;25.80;;;;;;4981586;28;20434;-76
2022/05/06 11:02:49;;;;;;;2.13;1.80;;;19.80;26.10;;;;;;4982330;28;20584;-75
2022/05/06 11:05:18;;;;;;;4.73;1.30;;;20.00;26.30;;;;;;4988655;28;20817;-76
2022/05/06 11:07:46;;;;;;;2.50;1.93;;;20.10;26.00;;;;;;4997126;28;20487;-76
2022/05/06 11:10:26;;;;;;;1.60;1.50;;;19.80;26.00;;;;;;5003378;28;20437;-75
2022/05/06 11:12:54;;;;;;;4.53;1.70;;;19.90;25.70;;;;;;5010925;28;20436;-75
2022/05/06 11:15:23;;;;;;;1.47;1.23;;;20.00;25.00;;;;;;5006656;28;21007;-73
2022/05/06 11:17:52;;;;;;;1.43;1.20;;;20.10;23.80;;;;;;5010105;28;20451;-74
2022/05/06 11:20:23;;;;;;;5.93;1.80;;;20.20;23.40;;;;;;5006285;28;20428;-73
2022/05/06 11:23:01;;;;;;;2.07;1.10;;;20.00;23.40;;;;;;4992164;28;20534;-74
2022/05/06 11:25:31;;;;;;;4.20;1.30;;;20.10;22.70;;;;;;4995087;28;20982;-74
2022/05/06 11:27:59;;;;;;;1.73;1.03;;;19.50;22.50;;;;;;5001824;28;20483;-73
2022/05/06 11:30:28;;;;;;;3.20;1.30;;;19.60;22.90;;;;;;4987011;28;20480;-74
2022/05/06 11:33:01;;;;;;;1.70;1.13;;;20.00;22.30;;;;;;4986080;28;20949;-75
2022/05/06 11:35:47;;;;;;;6.37;1.73;;;20.20;22.50;;;;;;4978066;28;20427;-75
2022/05/06 11:38:14;;;;;;;3.00;1.30;;;20.10;21.60;;;;;;4987640;28;20784;-74
2022/05/06 11:40:42;;;;;;;4.57;1.50;;;20.00;22.10;;;;;;5001676;28;20855;-74
2022/05/06 11:43:20;;;;;;;1.87;1.20;;;19.70;22.90;;;;;;4981090;28;20526;-74
2022/05/06 11:48:33;;;;;;;3.67;1.33;;;19.80;22.00;;;;;;4992375;28;20450;-75
2022/05/06 11:51:03;;;;;;;1.73;1.57;;;19.90;22.60;;;;;;4993994;28;20471;-74
2022/05/06 11:53:32;;;;;;;2.70;1.40;;;20.10;22.30;;;;;;4978529;28;20442;-75
2022/05/06 11:56:00;;;;;;;1.30;1.20;;;19.80;21.50;;;;;;4981801;28;20495;-75
2022/05/06 11:58:27;;;;;;;1.53;1.43;;;19.70;22.80;;;;;;4994523;28;20460;-75
2022/05/06 12:00:55;;;;;;;1.70;1.60;;;19.80;23.10;;;;;;4995477;28;20466;-73
2022/05/06 12:03:23;;;;;;;4.90;1.60;;;19.70;24.00;;;;;;4995030;28;20494;-75
2022/05/06 12:06:04;;;;;;;7.20;3.10;;;19.60;23.20;;;;;;5001627;28;20546;-77
2022/05/06 12:08:33;;;;;;;2.20;1.50;;;20.00;24.10;;;;;;4982998;28;20535;-76
2022/05/06 12:11:04;;;;;;;1.90;1.30;;;20.30;20.90;;;;;;4995628;28;20467;-74
2022/05/06 12:13:33;;;;;;;2.57;1.53;;;20.50;21.00;;;;;;4995963;28;20448;-73
2022/05/06 12:16:06;;;;;;;3.63;2.03;;;20.70;21.60;;;;;;4995075;28;20462;-75
2022/05/06 12:18:33;;;;;;;2.40;1.50;;;20.20;24.00;;;;;;4995890;28;20426;-74
2022/05/06 12:21:01;;;;;;;2.67;1.97;;;20.10;24.50;;;;;;4994745;28;20479;-74
2022/05/06 12:23:29;;;;;;;6.83;1.80;;;20.20;24.20;;;;;;4994586;28;20586;-76
2022/05/06 12:25:57;;;;;;;3.00;1.70;;;19.60;24.50;;;;;;4975550;28;20456;-74
2022/05/06 12:28:27;;;;;;;2.53;1.93;;;19.60;24.20;;;;;;4975712;28;20822;-75
2022/05/06 12:30:58;;;;;;;4.87;1.87;;;19.50;23.40;;;;;;4994566;28;20897;-75
2022/05/06 12:33:36;;;;;;;2.60;1.70;;;19.90;23.60;;;;;;4977283;28;20453;-73
2022/05/06 12:36:05;;;;;;;1.40;1.30;;;20.30;22.80;;;;;;4981548;28;20462;-74
2022/05/06 12:38:48;;;;;;;2.23;1.57;;;20.50;22.30;;;;;;4993732;28;20466;-75
2022/05/06 12:41:19;;;;;;;3.73;1.73;;;20.40;21.00;;;;;;4975733;28;20501;-72
2022/05/06 12:43:48;;;;;;;1.97;1.70;;;20.40;22.00;;;;;;4974337;28;20488;-73
2022/05/06 12:46:26;;;;;;;2.47;1.70;;;19.70;21.40;;;;;;4974630;28;20452;-75
2022/05/06 12:51:39;;;;;;;3.70;1.83;;;20.10;20.80;;;;;;4974787;28;20869;-72
2022/05/06 12:54:09;;;;;;;1.90;1.50;;;20.10;21.80;;;;;;4974473;28;20820;-73
2022/05/06 12:56:36;;;;;;;2.10;1.73;;;20.20;21.60;;;;;;4973622;28;20953;-73
2022/05/06 12:59:06;;;;;;;6.83;1.90;;;20.10;21.90;;;;;;4973601;28;20466;-72
2022/05/06 13:01:33;;;;;;;3.03;1.70;;;20.20;21.60;;;;;;4973656;28;20466;-71
2022/05/06 13:04:01;;;;;;;3.27;1.50;;;20.50;22.10;;;;;;4973236;28;20488;-74
2022/05/06 13:06:28;;;;;;;1.93;1.67;;;20.50;22.50;;;;;;4975269;28;20560;-76
2022/05/06 13:08:54;;;;;;;2.07;1.87;;;20.20;22.90;;;;;;4978875;28;20434;-77
2022/05/06 13:11:21;;;;;;;3.60;1.60;;;20.00;22.40;;;;;;4974567;28;20963;-76
2022/05/06 13:13:48;;;;;;;4.07;1.80;;;20.20;22.60;;;;;;4974451;28;20926;-76
2022/05/06 13:16:16;;;;;;;3.00;1.60;;;20.00;21.90;;;;;;4974065;28;20463;-76
2022/05/06 13:18:43;;;;;;;2.07;1.87;;;20.00;22.20;;;;;;4974566;28;20449;-74
2022/05/06 13:21:10;;;;;;;5.50;2.03;;;20.10;22.20;;;;;;4973545;28;20533;-75
2022/05/06 13:23:38;;;;;;;6.17;1.70;;;20.60;21.90;;;;;;4973455;28;20471;-75
2022/05/06 13:26:05;;;;;;;1.80;1.70;;;20.60;21.80;;;;;;4974430;28;20435;-74
2022/05/06 13:28:32;;;;;;;1.93;1.70;;;20.50;21.00;;;;;;4981935;28;20456;-76
2022/05/06 13:30:59;;;;;;;4.20;1.77;;;20.70;21.70;;;;;;4991328;28;20966;-75
2022/05/06 13:33:27;;;;;;;3.53;1.63;;;20.90;21.30;;;;;;4989162;28;20445;-75